CheckWX is a tool to help pilots better visualize weather data.  It is not intended as a substitute for an official pre-flight weather briefing.

07:45:09 UTC

LEXJ TAF
Santander Airport
Santander, Spain
TAF LEXJ 190200Z 1903/2003 VRB04KT 9999 FEW030 TX22/1914Z TN13/1905Z PROB30 TEMPO 1903/1906 3000 BR

Jun-19@
03:00 UTC

Jun-19 @ 03:00 UTC

Jun-20@
03:00 UTC

Jun-20 @ 03:00 UTC

TAF LEXJ 190200Z 1903/2003 VRB04KT 9999 FEW030 TX22/1914Z TN13/1905Z
Wind
  • Variable at 4 KTS
Cloud Levels
  • Few at 3,000' AGL

Jun-19@
03:00 UTC

Jun-19 @ 03:00 UTC

Jun-19@
06:00 UTC

Jun-19 @ 06:00 UTC

PROB30 TEMPO 1903/1906 3000 BR

Expired

Conditions
Mist